createdAt,value
2022-10-06T00:01:03.988Z,99780.89
2022-10-06T00:03:32.035Z,99778.60
2022-10-06T00:06:01.152Z,99782.17
2022-10-06T00:08:31.383Z,99785.75
2022-10-06T00:10:59.535Z,99787.19
2022-10-06T00:13:28.140Z,99789.05
2022-10-06T00:15:56.255Z,99785.71
2022-10-06T00:18:24.713Z,99786.20
2022-10-06T00:20:57.940Z,99784.80
2022-10-06T00:23:27.893Z,99783.38
2022-10-06T00:25:56.380Z,99776.33
2022-10-06T00:28:24.805Z,99778.99
2022-10-06T00:30:55.562Z,99776.77
2022-10-06T00:33:23.855Z,99779.54
2022-10-06T00:35:58.247Z,99777.83
2022-10-06T00:38:27.526Z,99780.30
2022-10-06T00:40:55.868Z,99776.52
2022-10-06T00:43:48.300Z,99776.15
2022-10-06T00:46:33.036Z,99775.77
2022-10-06T00:49:06.364Z,99783.33
2022-10-06T00:51:36.051Z,99783.64
2022-10-06T00:54:05.099Z,99783.02
2022-10-06T00:56:33.591Z,99781.82
2022-10-06T00:59:01.926Z,99784.54
2022-10-06T01:01:32.156Z,99784.80
2022-10-06T01:04:05.900Z,99780.86
2022-10-06T01:06:44.664Z,99782.63
2022-10-06T01:09:14.259Z,99785.58
2022-10-06T01:11:42.806Z,99791.11
2022-10-06T01:14:11.420Z,99785.70
2022-10-06T01:16:42.400Z,99790.00
2022-10-06T01:19:16.690Z,99787.38
2022-10-06T01:21:49.358Z,99790.20
2022-10-06T01:24:18.670Z,99791.20
2022-10-06T01:26:51.252Z,99788.08
2022-10-06T01:29:20.069Z,99796.20
2022-10-06T01:31:48.042Z,99799.30
2022-10-06T01:34:16.145Z,99794.80
2022-10-06T01:36:44.326Z,99793.31
2022-10-06T01:39:12.346Z,99793.34
2022-10-06T01:41:40.576Z,99790.91
2022-10-06T01:44:09.306Z,99789.38
2022-10-06T01:46:37.288Z,99787.71
2022-10-06T01:49:05.412Z,99790.11
2022-10-06T01:51:33.346Z,99790.90
2022-10-06T01:54:01.555Z,99789.30
2022-10-06T01:56:29.448Z,99792.89
2022-10-06T01:58:57.429Z,99791.83
2022-10-06T02:01:25.677Z,99791.23
2022-10-06T02:03:53.687Z,99791.33
2022-10-06T02:06:21.955Z,99795.74
2022-10-06T02:08:49.953Z,99798.02
2022-10-06T02:11:18.874Z,99802.31
2022-10-06T02:13:47.993Z,99799.52
2022-10-06T02:16:16.049Z,99800.97
2022-10-06T02:18:44.199Z,99802.56
2022-10-06T02:21:16.233Z,99800.42
2022-10-06T02:23:44.364Z,99800.83
2022-10-06T02:26:13.452Z,99807.50
2022-10-06T02:28:41.419Z,99801.65
2022-10-06T02:31:10.715Z,99811.79
2022-10-06T02:33:39.725Z,99813.21
2022-10-06T02:36:08.810Z,99813.68
2022-10-06T02:38:36.896Z,99814.66
2022-10-06T02:41:05.731Z,99817.04
2022-10-06T02:43:34.413Z,99816.59
2022-10-06T02:46:05.012Z,99823.40
2022-10-06T02:48:34.168Z,99824.61
2022-10-06T02:51:03.963Z,99822.06
2022-10-06T02:53:32.148Z,99827.16
2022-10-06T02:56:02.394Z,99822.77
2022-10-06T02:58:31.118Z,99823.22
2022-10-06T03:01:03.940Z,99821.30
2022-10-06T03:03:34.273Z,99815.12
2022-10-06T03:06:03.556Z,99824.54
2022-10-06T03:08:32.232Z,99827.04
2022-10-06T03:11:02.048Z,99829.57
2022-10-06T03:13:30.929Z,99827.26
2022-10-06T03:15:59.266Z,99834.70
2022-10-06T03:18:30.867Z,99837.08
2022-10-06T03:21:01.562Z,99841.77
2022-10-06T03:23:29.452Z,99849.22
2022-10-06T03:25:58.181Z,99854.34
2022-10-06T03:28:26.489Z,99856.97
2022-10-06T03:30:59.718Z,99858.48
2022-10-06T03:33:27.913Z,99864.04
2022-10-06T03:36:06.725Z,99858.33
2022-10-06T03:38:35.834Z,99854.22
2022-10-06T03:41:06.987Z,99851.77
2022-10-06T03:43:36.234Z,99854.45
2022-10-06T03:46:05.812Z,99852.16
2022-10-06T03:48:35.194Z,99849.46
2022-10-06T03:51:05.257Z,99847.64
2022-10-06T03:53:35.525Z,99848.33
2022-10-06T03:56:06.136Z,99841.50
2022-10-06T03:58:36.411Z,99844.66
2022-10-06T04:01:06.996Z,99847.58
2022-10-06T04:03:35.650Z,99852.30
2022-10-06T04:06:05.478Z,99857.38
2022-10-06T04:08:34.581Z,99864.79
2022-10-06T04:11:09.993Z,99868.33
2022-10-06T04:13:39.113Z,99871.02
2022-10-06T04:16:15.492Z,99867.64
2022-10-06T04:18:44.432Z,99876.49
2022-10-06T04:21:13.314Z,99884.06
2022-10-06T04:23:41.889Z,99887.42
2022-10-06T04:26:13.351Z,99892.86
2022-10-06T04:28:44.028Z,99889.70
2022-10-06T04:31:15.967Z,99898.59
2022-10-06T04:33:45.106Z,99903.96
2022-10-06T04:36:16.211Z,99898.69
2022-10-06T04:38:44.496Z,99908.19
2022-10-06T04:41:14.765Z,99906.73
2022-10-06T04:43:44.424Z,99909.20
2022-10-06T04:46:40.790Z,99915.05
2022-10-06T04:49:01.189Z,99917.77
2022-10-06T04:51:29.623Z,99920.84
2022-10-06T04:53:57.715Z,99923.11
2022-10-06T04:56:27.379Z,99926.40
2022-10-06T04:58:56.697Z,99924.52
2022-10-06T05:01:26.995Z,99933.39
2022-10-06T05:03:56.672Z,99937.66
2022-10-06T05:06:26.687Z,99951.08
2022-10-06T05:08:56.594Z,99953.36
2022-10-06T05:11:26.140Z,99960.20
2022-10-06T05:13:56.101Z,99961.05
2022-10-06T05:16:25.958Z,99960.84
2022-10-06T05:18:54.145Z,99962.89
2022-10-06T05:21:23.967Z,99963.02
2022-10-06T05:23:51.971Z,99970.36
2022-10-06T05:26:21.705Z,99980.58
2022-10-06T05:28:49.941Z,99981.39
2022-10-06T05:31:19.948Z,99987.09
2022-10-06T05:33:48.188Z,99988.23
2022-10-06T05:36:18.402Z,99992.45
2022-10-06T05:38:46.770Z,99998.52
2022-10-06T05:41:16.670Z,99999.71
2022-10-06T05:43:45.169Z,100005.73
2022-10-06T05:46:16.978Z,100006.98
2022-10-06T05:48:46.725Z,100007.54
2022-10-06T05:51:15.469Z,100011.42
2022-10-06T05:53:43.750Z,100019.70
2022-10-06T05:56:13.335Z,100020.32
2022-10-06T05:58:43.178Z,100024.64
2022-10-06T06:01:14.226Z,100031.38
2022-10-06T06:03:46.853Z,100024.45
2022-10-06T06:06:19.724Z,100027.95
2022-10-06T06:08:51.143Z,100028.17
2022-10-06T06:11:24.653Z,100027.66
2022-10-06T06:13:53.009Z,100021.42
2022-10-06T06:16:21.052Z,100018.94
2022-10-06T06:18:49.232Z,100038.38
2022-10-06T06:21:17.537Z,100051.25
2022-10-06T06:23:47.433Z,100048.98
2022-10-06T06:26:17.139Z,100061.30
2022-10-06T06:28:47.010Z,100060.73
2022-10-06T06:31:20.061Z,100064.64
2022-10-06T06:33:50.895Z,100073.39
2022-10-06T06:36:20.900Z,100084.27
2022-10-06T06:38:51.299Z,100085.16
2022-10-06T06:41:21.763Z,100088.27
2022-10-06T06:43:52.095Z,100096.45
2022-10-06T06:46:24.455Z,100101.33
2022-10-06T06:48:53.832Z,100106.30
2022-10-06T06:51:23.400Z,100111.48
2022-10-06T06:53:51.786Z,100113.23
2022-10-06T06:56:21.110Z,100112.20
2022-10-06T06:58:49.569Z,100116.72
2022-10-06T07:01:19.437Z,100114.35
2022-10-06T07:03:57.604Z,100117.41
2022-10-06T07:06:28.544Z,100124.96
2022-10-06T07:08:58.328Z,100125.65
2022-10-06T07:11:28.691Z,100128.25
2022-10-06T07:14:00.502Z,100133.39
2022-10-06T07:16:48.208Z,100131.01
2022-10-06T07:19:36.031Z,100122.27
2022-10-06T07:22:32.352Z,100132.75
2022-10-06T07:25:10.826Z,100135.20
2022-10-06T07:27:41.768Z,100139.84
2022-10-06T07:30:13.040Z,100135.84
2022-10-06T07:32:40.981Z,100135.85
2022-10-06T07:35:10.468Z,100141.59
2022-10-06T07:37:38.901Z,100146.44
2022-10-06T07:40:09.202Z,100150.15
2022-10-06T07:42:47.668Z,100151.03
2022-10-06T07:45:37.446Z,100153.07
2022-10-06T07:48:07.133Z,100160.41
2022-10-06T07:50:37.333Z,100163.16
2022-10-06T07:53:08.582Z,100166.09
2022-10-06T07:55:39.117Z,100169.29
2022-10-06T07:58:11.624Z,100172.23
2022-10-06T08:00:40.209Z,100174.44
2022-10-06T08:03:10.030Z,100185.05
2022-10-06T08:05:38.820Z,100185.72
2022-10-06T08:08:06.897Z,100190.38
2022-10-06T08:10:35.039Z,100195.46
2022-10-06T08:13:06.363Z,100198.94
2022-10-06T08:15:34.898Z,100204.38
2022-10-06T08:18:12.220Z,100205.52
2022-10-06T08:20:49.694Z,100207.10
2022-10-06T08:23:17.672Z,100208.13
2022-10-06T08:25:53.060Z,100210.45
2022-10-06T08:28:23.832Z,100213.73
2022-10-06T08:30:52.026Z,100218.76
2022-10-06T08:33:21.531Z,100219.48
2022-10-06T08:35:50.977Z,100220.50
2022-10-06T08:38:19.673Z,100223.94
2022-10-06T08:40:48.178Z,100226.46
2022-10-06T08:43:24.386Z,100227.64
2022-10-06T08:45:59.219Z,100224.38
2022-10-06T08:48:38.031Z,100223.98
2022-10-06T08:51:19.060Z,100227.49
2022-10-06T08:53:59.000Z,100228.95
2022-10-06T08:56:32.359Z,100225.16
2022-10-06T08:59:03.832Z,100228.15
2022-10-06T09:01:41.439Z,100231.77
2022-10-06T09:04:22.498Z,100232.27
2022-10-06T09:06:59.715Z,100234.38
2022-10-06T09:09:52.822Z,100235.55
2022-10-06T09:12:30.715Z,100236.09
2022-10-06T09:15:11.893Z,100230.57
2022-10-06T09:17:46.176Z,100230.23
2022-10-06T09:20:20.076Z,100235.45
2022-10-06T09:22:50.965Z,100237.66
2022-10-06T09:25:24.865Z,100237.58
2022-10-06T09:27:55.497Z,100234.77
2022-10-06T09:30:24.398Z,100232.37
2022-10-06T09:32:58.261Z,100228.52
2022-10-06T09:35:28.336Z,100229.85
2022-10-06T09:37:58.969Z,100225.27
2022-10-06T09:40:39.101Z,100225.08
2022-10-06T09:43:19.016Z,100223.31
2022-10-06T09:45:47.214Z,100225.63
2022-10-06T09:48:25.180Z,100227.18
2022-10-06T09:51:14.104Z,100233.51
2022-10-06T09:53:43.516Z,100228.11
2022-10-06T09:56:18.142Z,100227.31
2022-10-06T09:58:56.166Z,100232.86
2022-10-06T10:01:26.768Z,100238.71
2022-10-06T10:04:19.479Z,100241.41
2022-10-06T10:06:48.873Z,100245.42
2022-10-06T10:09:25.743Z,100250.29
2022-10-06T10:12:24.775Z,100253.31
2022-10-06T10:14:54.334Z,100252.91
2022-10-06T10:17:33.019Z,100250.73
2022-10-06T10:20:02.942Z,100255.75
2022-10-06T10:22:37.050Z,100259.06
2022-10-06T10:25:20.080Z,100260.23
2022-10-06T10:28:00.160Z,100261.13
2022-10-06T10:30:28.610Z,100265.77
2022-10-06T10:33:09.308Z,100269.09
2022-10-06T10:35:41.089Z,100273.30
2022-10-06T10:38:17.516Z,100274.95
2022-10-06T10:40:49.963Z,100272.47
2022-10-06T10:43:25.429Z,100270.42
2022-10-06T10:46:01.888Z,100274.20
2022-10-06T10:48:33.915Z,100274.05
2022-10-06T10:51:07.094Z,100275.42
2022-10-06T10:53:43.942Z,100280.64
2022-10-06T10:56:15.578Z,100281.11
2022-10-06T10:58:45.736Z,100276.80
2022-10-06T11:01:25.681Z,100271.52
2022-10-06T11:03:58.848Z,100275.14
2022-10-06T11:06:54.493Z,100278.01
2022-10-06T11:09:27.324Z,100284.16
2022-10-06T11:12:06.163Z,100288.06
2022-10-06T11:14:48.469Z,100284.09
2022-10-06T11:17:30.205Z,100286.98
2022-10-06T11:20:08.090Z,100286.70
2022-10-06T11:22:42.717Z,100285.33
2022-10-06T11:25:27.551Z,100286.67
2022-10-06T11:28:06.809Z,100282.78
2022-10-06T11:30:44.986Z,100281.46
2022-10-06T11:33:20.567Z,100285.64
2022-10-06T11:35:49.043Z,100286.80
2022-10-06T11:38:26.173Z,100286.08
2022-10-06T11:41:13.525Z,100290.80
2022-10-06T11:43:49.079Z,100295.27
2022-10-06T11:46:32.481Z,100294.06
2022-10-06T11:49:52.154Z,100298.05
2022-10-06T11:52:47.040Z,100298.52
2022-10-06T11:55:19.718Z,100306.08
2022-10-06T11:58:41.850Z,100307.52
2022-10-06T12:01:03.457Z,100307.14
2022-10-06T12:03:50.372Z,100315.42
2022-10-06T12:06:54.977Z,100320.20
2022-10-06T12:09:52.049Z,100323.09
2022-10-06T12:13:06.206Z,100323.37
2022-10-06T12:19:18.854Z,100331.70
2022-10-06T12:21:54.659Z,100327.06
2022-10-06T12:24:30.663Z,100322.94
2022-10-06T12:27:24.994Z,100321.12
2022-10-06T12:30:02.110Z,100316.09
2022-10-06T12:32:46.250Z,100324.68
2022-10-06T12:35:24.173Z,100329.39
2022-10-06T12:37:54.489Z,100327.69
2022-10-06T12:40:48.655Z,100326.15
2022-10-06T12:43:57.122Z,100326.56
2022-10-06T12:46:45.319Z,100325.82
2022-10-06T12:49:36.398Z,100328.42
2022-10-06T12:52:16.006Z,100335.88
2022-10-06T12:54:52.004Z,100342.88
2022-10-06T12:57:21.217Z,100351.35
2022-10-06T12:59:51.814Z,100351.63
2022-10-06T13:02:22.656Z,100347.45
2022-10-06T13:04:54.072Z,100351.80
2022-10-06T13:07:24.151Z,100351.20
2022-10-06T13:09:54.781Z,100350.23
2022-10-06T13:12:26.115Z,100352.72
2022-10-06T13:15:13.336Z,100353.20
2022-10-06T13:17:43.764Z,100359.64
2022-10-06T13:20:36.778Z,100360.86
2022-10-06T13:23:18.922Z,100362.85
2022-10-06T13:25:49.111Z,100365.61
2022-10-06T13:28:44.901Z,100371.88
2022-10-06T13:31:19.827Z,100366.80
2022-10-06T13:33:52.159Z,100367.45
2022-10-06T13:36:22.850Z,100370.51
2022-10-06T13:38:52.744Z,100373.33
2022-10-06T13:41:26.936Z,100374.45
2022-10-06T13:43:58.508Z,100377.17
2022-10-06T13:46:29.665Z,100380.27
2022-10-06T13:49:02.872Z,100384.64
2022-10-06T13:51:32.674Z,100388.94
2022-10-06T13:54:04.173Z,100389.36
2022-10-06T13:56:39.265Z,100391.07
2022-10-06T13:59:30.053Z,100393.17
2022-10-06T14:01:59.720Z,100386.33
2022-10-06T14:04:28.738Z,100385.77
2022-10-06T14:07:01.330Z,100387.45
2022-10-06T14:09:32.685Z,100396.64
2022-10-06T14:12:06.247Z,100393.16
2022-10-06T14:14:35.207Z,100393.86
2022-10-06T14:17:04.076Z,100393.04
2022-10-06T14:19:38.201Z,100396.04
2022-10-06T14:22:28.709Z,100401.48
2022-10-06T14:24:56.770Z,100399.23
2022-10-06T14:27:24.934Z,100396.74
2022-10-06T14:29:53.116Z,100397.02
2022-10-06T14:32:21.956Z,100395.11
2022-10-06T14:34:50.198Z,100395.79
2022-10-06T14:37:18.458Z,100394.98
2022-10-06T14:39:46.751Z,100394.17
2022-10-06T14:42:15.147Z,100399.55
2022-10-06T14:44:44.315Z,100398.04
2022-10-06T14:47:12.622Z,100400.21
2022-10-06T14:49:40.914Z,100403.35
2022-10-06T14:52:10.006Z,100397.33
2022-10-06T14:54:38.465Z,100402.89
2022-10-06T14:57:06.534Z,100409.98
2022-10-06T14:59:34.719Z,100415.95
2022-10-06T15:02:03.031Z,100412.32
2022-10-06T15:04:31.178Z,100415.66
2022-10-06T15:07:26.507Z,100412.15
2022-10-06T15:09:54.984Z,100412.88
2022-10-06T15:12:23.174Z,100416.67
2022-10-06T15:14:51.268Z,100418.27
2022-10-06T15:17:19.656Z,100422.97
2022-10-06T15:19:47.999Z,100423.87
2022-10-06T15:22:16.199Z,100425.63
2022-10-06T15:24:48.163Z,100427.80
2022-10-06T15:27:34.927Z,100428.19
2022-10-06T15:30:03.668Z,100427.08
2022-10-06T15:32:32.002Z,100428.93
2022-10-06T15:35:00.274Z,100428.23
2022-10-06T15:37:28.454Z,100432.66
2022-10-06T15:39:57.480Z,100432.09
2022-10-06T15:42:25.891Z,100430.22
2022-10-06T15:44:54.411Z,100436.14
2022-10-06T15:47:23.169Z,100433.16
2022-10-06T15:49:51.355Z,100434.42
2022-10-06T15:52:19.731Z,100435.77
2022-10-06T15:54:49.240Z,100442.55
2022-10-06T15:57:20.988Z,100448.14
2022-10-06T15:59:50.360Z,100451.83
2022-10-06T16:02:20.547Z,100451.38
2022-10-06T16:05:12.246Z,100450.59
2022-10-06T16:07:40.435Z,100451.39
2022-10-06T16:10:09.847Z,100452.34
2022-10-06T16:12:38.274Z,100444.94
2022-10-06T16:15:08.726Z,100450.25
2022-10-06T16:17:37.050Z,100454.10
2022-10-06T16:20:07.202Z,100452.61
2022-10-06T16:22:35.854Z,100456.93
2022-10-06T16:25:05.739Z,100455.97
2022-10-06T16:27:34.904Z,100458.11
2022-10-06T16:30:03.395Z,100458.30
2022-10-06T16:32:31.643Z,100465.71
2022-10-06T16:34:59.928Z,100465.09
2022-10-06T16:37:28.311Z,100475.05
2022-10-06T16:39:56.556Z,100477.59
2022-10-06T16:42:24.977Z,100476.17
2022-10-06T16:44:53.458Z,100481.54
2022-10-06T16:47:21.987Z,100478.59
2022-10-06T16:49:50.747Z,100477.80
2022-10-06T16:52:19.132Z,100480.13
2022-10-06T16:54:47.521Z,100482.09
2022-10-06T16:57:15.795Z,100488.79
2022-10-06T16:59:46.828Z,100488.52
2022-10-06T17:02:15.639Z,100492.08
2022-10-06T17:04:44.105Z,100489.49
2022-10-06T17:07:12.331Z,100497.19
2022-10-06T17:09:55.839Z,100503.52
2022-10-06T17:12:31.866Z,100505.30
2022-10-06T17:15:00.278Z,100507.61
2022-10-06T17:17:28.463Z,100505.12
2022-10-06T17:19:56.779Z,100506.36
2022-10-06T17:22:25.017Z,100509.64
2022-10-06T17:24:53.321Z,100511.20
2022-10-06T17:27:22.093Z,100509.08
2022-10-06T17:29:50.305Z,100512.44
2022-10-06T17:32:18.453Z,100516.67
2022-10-06T17:34:46.585Z,100517.30
2022-10-06T17:37:15.210Z,100518.55
2022-10-06T17:39:47.147Z,100520.87
2022-10-06T17:42:15.642Z,100519.86
2022-10-06T17:44:44.214Z,100520.84
2022-10-06T17:47:12.543Z,100524.19
2022-10-06T17:49:40.824Z,100519.38
2022-10-06T17:52:10.247Z,100514.48
2022-10-06T17:54:38.621Z,100509.75
2022-10-06T17:57:07.193Z,100512.60
2022-10-06T17:59:35.495Z,100509.80
2022-10-06T18:02:05.725Z,100509.83
2022-10-06T18:04:35.324Z,100511.26
2022-10-06T18:07:03.576Z,100510.01
2022-10-06T18:09:31.741Z,100517.24
2022-10-06T18:12:02.024Z,100519.76
2022-10-06T18:14:32.742Z,100521.16
2022-10-06T18:17:03.180Z,100520.27
2022-10-06T18:19:33.109Z,100518.73
2022-10-06T18:22:04.349Z,100518.27
2022-10-06T18:24:32.738Z,100520.10
2022-10-06T18:27:01.655Z,100521.91
2022-10-06T18:29:31.178Z,100525.23
2022-10-06T18:32:23.569Z,100521.42
2022-10-06T18:37:36.819Z,100519.27
2022-10-06T18:40:08.092Z,100521.52
2022-10-06T18:42:36.482Z,100526.59
2022-10-06T18:45:25.440Z,100531.36
2022-10-06T18:48:11.906Z,100529.30
2022-10-06T18:50:40.398Z,100529.73
2022-10-06T18:53:08.679Z,100531.84
2022-10-06T18:55:36.894Z,100531.16
2022-10-06T18:58:05.848Z,100534.60
2022-10-06T19:00:33.725Z,100535.44
2022-10-06T19:03:02.005Z,100533.67
2022-10-06T19:05:31.926Z,100534.73
2022-10-06T19:08:01.127Z,100534.73
2022-10-06T19:10:29.771Z,100534.14
2022-10-06T19:12:58.106Z,100536.44
2022-10-06T19:15:26.608Z,100534.89
2022-10-06T19:17:54.782Z,100542.80
2022-10-06T19:20:23.287Z,100541.36
2022-10-06T19:22:52.297Z,100541.52
2022-10-06T19:25:21.213Z,100537.73
2022-10-06T19:27:51.856Z,100542.53
2022-10-06T19:30:22.571Z,100546.20
2022-10-06T19:32:52.038Z,100542.02
2022-10-06T19:35:20.416Z,100541.95
2022-10-06T19:37:50.582Z,100538.21
2022-10-06T19:40:19.035Z,100542.42
2022-10-06T19:42:47.214Z,100544.84
2022-10-06T19:45:16.848Z,100548.95
2022-10-06T19:47:46.647Z,100550.18
2022-10-06T19:50:16.760Z,100551.52
2022-10-06T19:52:45.260Z,100547.66
2022-10-06T19:55:13.526Z,100550.27
2022-10-06T19:57:42.411Z,100551.29
2022-10-06T20:00:13.348Z,100551.80
2022-10-06T20:02:43.654Z,100552.84
2022-10-06T20:05:13.628Z,100553.36
2022-10-06T20:07:44.677Z,100556.84
2022-10-06T20:10:14.093Z,100557.13
2022-10-06T20:12:42.404Z,100561.23
2022-10-06T20:15:12.207Z,100561.84
2022-10-06T20:17:41.271Z,100562.46
2022-10-06T20:20:10.835Z,100564.44
2022-10-06T20:22:39.275Z,100565.09
2022-10-06T20:25:08.237Z,100562.20
2022-10-06T20:27:36.374Z,100564.46
2022-10-06T20:30:06.156Z,100564.95
2022-10-06T20:32:34.441Z,100569.41
2022-10-06T20:35:04.229Z,100571.84
2022-10-06T20:37:32.301Z,100567.87
2022-10-06T20:40:18.755Z,100571.64
2022-10-06T20:42:48.787Z,100573.80
2022-10-06T20:45:17.146Z,100572.54
2022-10-06T20:47:47.598Z,100573.60
2022-10-06T20:50:16.152Z,100574.45
2022-10-06T20:52:46.283Z,100573.84
2022-10-06T20:55:14.663Z,100573.16
2022-10-06T20:57:42.852Z,100574.80
2022-10-06T21:00:13.676Z,100580.96
2022-10-06T21:02:41.999Z,100581.14
2022-10-06T21:05:10.678Z,100577.73
2022-10-06T21:07:38.899Z,100572.20
2022-10-06T21:10:09.341Z,100568.86
2022-10-06T21:12:37.395Z,100574.91
2022-10-06T21:15:07.425Z,100575.30
2022-10-06T21:17:35.551Z,100575.48
2022-10-06T21:20:04.660Z,100576.86
2022-10-06T21:22:32.933Z,100582.89
2022-10-06T21:25:01.216Z,100585.26
2022-10-06T21:27:29.191Z,100576.02
2022-10-06T21:29:57.165Z,100572.54
2022-10-06T21:32:25.314Z,100573.34
2022-10-06T21:34:55.878Z,100575.38
2022-10-06T21:37:24.061Z,100572.91
2022-10-06T21:39:52.126Z,100574.09
2022-10-06T21:42:20.317Z,100578.97
2022-10-06T21:44:48.494Z,100573.88
2022-10-06T21:47:16.609Z,100574.22
2022-10-06T21:49:44.754Z,100576.09
2022-10-06T21:52:12.828Z,100577.64
2022-10-06T21:54:41.071Z,100575.75
2022-10-06T21:57:09.085Z,100575.04
2022-10-06T21:59:37.107Z,100571.77
2022-10-06T22:02:05.310Z,100572.34
2022-10-06T22:04:33.436Z,100569.20
2022-10-06T22:07:01.700Z,100567.39
2022-10-06T22:09:29.884Z,100566.16
2022-10-06T22:11:58.264Z,100564.27
2022-10-06T22:14:26.617Z,100564.95
2022-10-06T22:16:54.632Z,100568.42
2022-10-06T22:19:22.656Z,100564.79
2022-10-06T22:21:50.691Z,100558.38
2022-10-06T22:24:20.738Z,100559.00
2022-10-06T22:26:49.388Z,100553.96
2022-10-06T22:29:19.516Z,100549.16
2022-10-06T22:31:48.592Z,100546.63
2022-10-06T22:34:19.052Z,100548.55
2022-10-06T22:36:47.225Z,100547.83
2022-10-06T22:39:15.402Z,100548.17
2022-10-06T22:41:44.804Z,100549.88
2022-10-06T22:44:12.886Z,100548.93
2022-10-06T22:46:41.039Z,100552.08
2022-10-06T22:49:09.614Z,100554.57
2022-10-06T22:51:37.629Z,100550.06
2022-10-06T22:54:06.220Z,100550.39
2022-10-06T22:56:34.710Z,100543.05
2022-10-06T22:59:03.452Z,100539.66
2022-10-06T23:01:31.684Z,100539.67
2022-10-06T23:03:59.726Z,100537.70
2022-10-06T23:06:30.462Z,100534.12
2022-10-06T23:08:59.810Z,100536.22
2022-10-06T23:11:28.305Z,100533.56
2022-10-06T23:13:57.197Z,100527.54
2022-10-06T23:16:25.435Z,100530.23
2022-10-06T23:18:54.463Z,100523.27
2022-10-06T23:21:26.722Z,100524.90
2022-10-06T23:23:56.370Z,100522.92
2022-10-06T23:26:24.928Z,100518.71
2022-10-06T23:28:55.487Z,100522.88
2022-10-06T23:31:24.138Z,100527.85
2022-10-06T23:33:52.287Z,100530.29
2022-10-06T23:36:20.952Z,100535.15
2022-10-06T23:38:49.304Z,100538.99
2022-10-06T23:41:17.490Z,100536.05
2022-10-06T23:43:46.111Z,100535.44
2022-10-06T23:46:14.825Z,100529.16
2022-10-06T23:48:43.504Z,100529.31
2022-10-06T23:51:13.213Z,100530.79
2022-10-06T23:53:42.380Z,100531.14
2022-10-06T23:56:10.868Z,100536.11
2022-10-06T23:58:39.561Z,100534.66
